createdAt,value
2022-12-04T00:00:42.709Z,25.05
2022-12-04T00:05:20.560Z,24.53
2022-12-04T00:06:24.351Z,24.37
2022-12-04T00:09:50.827Z,24.35
2022-12-04T00:10:53.347Z,22.92
2022-12-04T00:14:21.755Z,23.25
2022-12-04T00:15:26.203Z,24.37
2022-12-04T00:16:30.107Z,23.83
2022-12-04T00:19:38.243Z,23.15
2022-12-04T00:20:41.163Z,24.50
2022-12-04T00:24:09.739Z,22.17
2022-12-04T00:25:12.431Z,23.50
2022-12-04T00:28:40.746Z,23.42
2022-12-04T00:29:43.339Z,23.75
2022-12-04T00:33:11.720Z,22.47
2022-12-04T00:34:14.695Z,23.83
2022-12-04T00:37:43.728Z,22.20
2022-12-04T00:38:47.179Z,22.98
2022-12-04T00:42:13.856Z,23.92
2022-12-04T00:43:16.755Z,22.87
2022-12-04T00:46:45.754Z,22.77
2022-12-04T00:47:48.537Z,22.33
2022-12-04T00:51:17.728Z,23.00
2022-12-04T00:52:20.275Z,22.75
2022-12-04T00:55:49.731Z,23.77
2022-12-04T00:56:52.629Z,23.25
2022-12-04T00:57:59.697Z,23.12
2022-12-04T00:59:02.951Z,23.83
2022-12-04T01:00:19.827Z,24.25
2022-12-04T01:01:23.342Z,23.40
2022-12-04T01:02:26.123Z,24.23
2022-12-04T01:05:42.718Z,23.42
2022-12-04T01:06:47.198Z,23.33
2022-12-04T01:10:05.294Z,22.83
2022-12-04T01:11:08.223Z,24.42
2022-12-04T01:14:34.827Z,24.48
2022-12-04T01:15:43.672Z,22.67
2022-12-04T01:19:09.362Z,24.37
2022-12-04T01:20:14.371Z,24.63
2022-12-04T01:23:35.901Z,24.27
2022-12-04T01:24:38.521Z,23.52
2022-12-04T01:28:07.732Z,24.00
2022-12-04T01:29:10.264Z,24.15
2022-12-04T01:32:38.734Z,24.87
2022-12-04T01:33:42.767Z,25.45
2022-12-04T01:34:45.761Z,24.17
2022-12-04T01:35:53.782Z,26.25
2022-12-04T01:37:09.803Z,25.12
2022-12-04T01:38:12.402Z,24.52
2022-12-04T01:39:15.245Z,24.70
2022-12-04T01:42:23.643Z,26.08
2022-12-04T01:43:30.185Z,28.50
2022-12-04T01:46:52.884Z,39.22
2022-12-04T01:48:02.508Z,28.10
2022-12-04T01:51:31.958Z,29.65
2022-12-04T01:52:34.826Z,24.25
2022-12-04T01:55:55.223Z,24.58
2022-12-04T02:01:18.964Z,23.00
2022-12-04T02:06:05.668Z,23.77
2022-12-04T02:07:09.251Z,24.90
2022-12-04T02:08:12.338Z,24.58
2022-12-04T02:11:46.643Z,23.62
2022-12-04T02:21:12.020Z,22.02
2022-12-04T02:27:01.292Z,24.27
2022-12-04T02:28:13.091Z,24.08
2022-12-04T02:31:31.234Z,23.48
2022-12-04T02:35:01.598Z,24.67
2022-12-04T02:36:19.633Z,24.27
2022-12-04T02:37:38.085Z,23.45
2022-12-04T02:38:44.592Z,24.12
2022-12-04T02:40:09.648Z,26.65
2022-12-04T02:41:52.614Z,25.50
2022-12-04T02:43:07.193Z,26.15
2022-12-04T02:44:15.500Z,28.23
2022-12-04T02:45:26.302Z,29.50
2022-12-04T02:46:35.626Z,27.57
2022-12-04T02:47:41.356Z,27.50
2022-12-04T02:48:49.412Z,27.75
2022-12-04T02:50:05.425Z,27.02
2022-12-04T02:51:11.855Z,27.27
2022-12-04T02:52:20.825Z,28.67
2022-12-04T02:53:28.667Z,26.92
2022-12-04T02:54:39.483Z,29.02
2022-12-04T02:55:46.446Z,28.92
2022-12-04T02:56:51.123Z,30.83
2022-12-04T02:57:59.579Z,29.10
2022-12-04T02:59:08.547Z,30.10
2022-12-04T03:00:11.900Z,28.42
2022-12-04T03:01:21.000Z,31.20
2022-12-04T03:02:53.591Z,29.12
2022-12-04T03:03:56.571Z,27.55
2022-12-04T03:05:02.134Z,29.17
2022-12-04T03:06:10.473Z,28.08
2022-12-04T03:07:18.161Z,29.67
2022-12-04T03:08:26.337Z,28.25
2022-12-04T03:09:58.883Z,27.20
2022-12-04T03:11:02.392Z,26.03
2022-12-04T03:12:19.312Z,27.00
2022-12-04T03:13:29.149Z,25.92
2022-12-04T03:14:38.158Z,26.98
2022-12-04T03:15:49.454Z,27.95
2022-12-04T03:16:57.840Z,26.95
2022-12-04T03:18:05.495Z,24.90
2022-12-04T03:19:15.489Z,25.62
2022-12-04T03:20:20.020Z,25.85
2022-12-04T03:21:28.167Z,25.57
2022-12-04T03:22:33.762Z,24.37
2022-12-04T03:23:44.404Z,26.02
2022-12-04T03:24:55.575Z,25.37
2022-12-04T03:26:01.762Z,26.55
2022-12-04T03:27:23.409Z,24.20
2022-12-04T03:28:34.613Z,25.33
2022-12-04T03:30:01.676Z,26.25
2022-12-04T03:31:09.873Z,24.77
2022-12-04T03:32:17.986Z,25.35
2022-12-04T03:33:28.884Z,25.20
2022-12-04T03:34:48.545Z,25.93
2022-12-04T03:36:05.397Z,26.80
2022-12-04T03:37:14.874Z,26.02
2022-12-04T03:38:54.356Z,28.10
2022-12-04T03:40:27.666Z,25.62
2022-12-04T03:41:52.644Z,25.20
2022-12-04T03:43:03.769Z,27.17
2022-12-04T03:44:23.771Z,25.42
2022-12-04T03:45:38.235Z,25.77
2022-12-04T03:46:54.616Z,24.83
2022-12-04T03:48:06.278Z,25.42
2022-12-04T03:49:17.463Z,25.83
2022-12-04T03:50:41.983Z,23.83
2022-12-04T03:52:08.582Z,25.20
2022-12-04T03:53:17.240Z,26.58
2022-12-04T03:54:44.745Z,26.10
2022-12-04T03:55:54.661Z,25.60
2022-12-04T03:57:03.278Z,25.40
2022-12-04T03:58:10.353Z,26.73
2022-12-04T03:59:23.877Z,27.93
2022-12-04T04:00:29.256Z,26.42
2022-12-04T04:01:41.841Z,26.40
2022-12-04T04:02:58.543Z,25.05
2022-12-04T04:04:05.319Z,27.50
2022-12-04T04:05:13.353Z,27.87
2022-12-04T04:06:22.661Z,26.35
2022-12-04T04:07:44.250Z,26.90
2022-12-04T04:08:52.369Z,25.60
2022-12-04T04:10:00.705Z,27.80
2022-12-04T04:11:18.703Z,28.27
2022-12-04T04:12:25.980Z,27.57
2022-12-04T04:14:03.210Z,25.73
2022-12-04T04:15:32.948Z,25.42
2022-12-04T04:16:57.922Z,27.13
2022-12-04T04:18:20.748Z,25.30
2022-12-04T04:19:47.023Z,26.67
2022-12-04T04:21:16.865Z,25.67
2022-12-04T04:22:39.874Z,25.73
2022-12-04T04:24:08.802Z,25.67
2022-12-04T04:25:16.375Z,26.33
2022-12-04T04:26:19.158Z,28.08
2022-12-04T04:27:21.853Z,26.65
2022-12-04T04:28:50.642Z,26.52
2022-12-04T04:29:53.442Z,26.25
2022-12-04T04:31:13.287Z,26.80
2022-12-04T04:32:57.519Z,27.05
2022-12-04T04:34:13.888Z,24.67
2022-12-04T04:35:47.416Z,25.45
2022-12-04T04:37:02.091Z,26.37
2022-12-04T04:38:16.864Z,25.07
2022-12-04T04:39:55.277Z,25.90
2022-12-04T04:41:20.917Z,25.10
2022-12-04T04:42:37.549Z,24.77
2022-12-04T04:43:54.278Z,25.08
2022-12-04T04:45:09.092Z,26.05
2022-12-04T04:46:25.382Z,25.75
2022-12-04T04:47:37.654Z,24.87
2022-12-04T04:48:47.586Z,26.10
2022-12-04T04:49:53.973Z,26.35
2022-12-04T04:51:00.048Z,25.67
2022-12-04T04:52:03.521Z,26.62
2022-12-04T04:53:13.781Z,26.52
2022-12-04T04:54:17.897Z,26.65
2022-12-04T04:55:22.293Z,26.27
2022-12-04T04:56:25.601Z,27.60
2022-12-04T04:57:32.137Z,27.00
2022-12-04T04:58:35.122Z,26.62
2022-12-04T04:59:37.820Z,26.30
2022-12-04T05:00:45.248Z,26.52
2022-12-04T05:01:48.165Z,26.80
2022-12-04T05:02:50.855Z,26.77
2022-12-04T05:03:54.083Z,26.12
2022-12-04T05:04:56.683Z,28.65
2022-12-04T05:05:59.669Z,27.52
2022-12-04T05:07:02.634Z,27.35
2022-12-04T05:08:05.675Z,27.25
2022-12-04T05:09:08.666Z,27.15
2022-12-04T05:10:11.894Z,27.70
2022-12-04T05:11:15.850Z,26.50
2022-12-04T05:12:18.480Z,26.73
2022-12-04T05:13:21.941Z,27.45
2022-12-04T05:14:24.849Z,26.30
2022-12-04T05:15:27.771Z,27.95
2022-12-04T05:16:30.466Z,27.60
2022-12-04T05:17:35.508Z,26.37
2022-12-04T05:18:38.932Z,25.40
2022-12-04T05:19:54.487Z,26.37
2022-12-04T05:20:57.495Z,50.08
2022-12-04T05:22:00.135Z,99.93
2022-12-04T05:23:02.696Z,64.33
2022-12-04T05:24:05.564Z,42.23
2022-12-04T05:25:08.979Z,26.52
2022-12-04T05:26:11.699Z,26.58
2022-12-04T05:27:14.459Z,28.00
2022-12-04T05:28:17.576Z,26.05
2022-12-04T05:29:20.164Z,28.90
2022-12-04T05:30:23.057Z,26.70
2022-12-04T05:31:25.676Z,27.48
2022-12-04T05:32:29.832Z,28.60
2022-12-04T05:33:32.446Z,26.33
2022-12-04T05:34:35.009Z,27.80
2022-12-04T05:35:37.833Z,27.27
2022-12-04T05:36:40.713Z,27.35
2022-12-04T05:37:43.460Z,27.48
2022-12-04T05:38:45.973Z,27.62
2022-12-04T05:39:48.993Z,26.92
2022-12-04T05:40:51.822Z,28.15
2022-12-04T05:41:54.429Z,27.48
2022-12-04T05:42:57.428Z,28.55
2022-12-04T05:44:00.049Z,27.60
2022-12-04T05:45:02.754Z,27.37
2022-12-04T05:46:07.862Z,26.73
2022-12-04T05:47:11.172Z,26.58
2022-12-04T05:48:14.354Z,27.83
2022-12-04T05:49:18.912Z,27.85
2022-12-04T05:50:23.797Z,28.60
2022-12-04T05:51:26.729Z,27.35
2022-12-04T05:52:33.181Z,29.10
2022-12-04T05:53:36.597Z,27.48
2022-12-04T05:54:39.317Z,29.47
2022-12-04T05:55:41.855Z,28.20
2022-12-04T05:56:45.481Z,27.33
2022-12-04T05:57:48.078Z,27.58
2022-12-04T05:58:50.843Z,27.50
2022-12-04T05:59:53.731Z,28.05
2022-12-04T06:00:56.560Z,26.65
2022-12-04T06:01:59.412Z,25.02
2022-12-04T06:03:02.056Z,27.15
2022-12-04T06:04:04.876Z,25.35
2022-12-04T06:05:08.015Z,26.90
2022-12-04T06:06:19.257Z,26.03
2022-12-04T06:07:24.087Z,22.92
2022-12-04T06:08:26.624Z,32.95
2022-12-04T06:09:29.228Z,38.63
2022-12-04T06:10:34.223Z,28.52
2022-12-04T06:11:38.615Z,52.38
2022-12-04T06:12:41.527Z,43.30
2022-12-04T06:13:45.667Z,33.88
2022-12-04T06:14:48.220Z,42.65
2022-12-04T06:15:50.903Z,37.27
2022-12-04T06:16:54.306Z,30.50
2022-12-04T06:17:57.227Z,37.30
2022-12-04T06:19:02.769Z,42.38
2022-12-04T06:20:11.267Z,34.63
2022-12-04T06:21:14.375Z,42.75
2022-12-04T06:22:16.894Z,36.55
2022-12-04T06:23:19.764Z,48.33
2022-12-04T06:24:24.815Z,40.25
2022-12-04T06:25:27.936Z,37.75
2022-12-04T06:26:31.432Z,38.17
2022-12-04T06:27:34.391Z,44.80
2022-12-04T06:28:38.092Z,51.15
2022-12-04T06:29:40.666Z,32.13
2022-12-04T06:30:43.295Z,30.62
2022-12-04T06:31:45.997Z,30.08
2022-12-04T06:32:48.659Z,32.30
2022-12-04T06:33:54.884Z,31.17
2022-12-04T06:34:57.509Z,36.63
2022-12-04T06:36:15.113Z,29.90
2022-12-04T06:37:17.778Z,28.77
2022-12-04T06:38:26.919Z,34.73
2022-12-04T06:39:33.653Z,37.08
2022-12-04T06:40:40.164Z,35.40
2022-12-04T06:41:43.180Z,35.92
2022-12-04T06:42:46.073Z,33.38
2022-12-04T06:43:49.197Z,33.15
2022-12-04T06:44:52.237Z,39.33
2022-12-04T06:46:10.489Z,38.80
2022-12-04T06:47:13.230Z,34.47
2022-12-04T06:48:16.156Z,30.83
2022-12-04T06:49:22.696Z,29.60
2022-12-04T06:50:25.574Z,33.40
2022-12-04T06:51:33.742Z,28.75
2022-12-04T06:52:36.277Z,28.67
2022-12-04T06:53:38.955Z,29.10
2022-12-04T06:54:41.559Z,26.52
2022-12-04T06:55:48.914Z,45.90
2022-12-04T06:56:51.625Z,28.83
2022-12-04T06:57:54.465Z,31.55
2022-12-04T06:58:59.440Z,30.20
2022-12-04T07:00:02.004Z,34.87
2022-12-04T07:01:10.541Z,34.75
2022-12-04T07:02:13.407Z,32.75
2022-12-04T07:03:16.214Z,35.88
2022-12-04T07:04:19.042Z,43.67
2022-12-04T07:05:21.813Z,41.88
2022-12-04T07:06:27.609Z,37.80
2022-12-04T07:07:31.135Z,34.60
2022-12-04T07:08:33.789Z,40.25
2022-12-04T07:09:37.031Z,41.80
2022-12-04T07:10:40.596Z,40.53
2022-12-04T07:11:44.614Z,36.90
2022-12-04T07:12:47.178Z,33.42
2022-12-04T07:13:51.153Z,31.25
2022-12-04T07:14:53.660Z,28.40
2022-12-04T07:15:56.242Z,29.00
2022-12-04T07:16:59.298Z,28.87
2022-12-04T07:18:02.292Z,32.05
2022-12-04T07:19:04.943Z,31.70
2022-12-04T07:20:08.624Z,36.60
2022-12-04T07:21:14.995Z,33.45
2022-12-04T07:22:17.923Z,35.47
2022-12-04T07:23:20.698Z,33.90
2022-12-04T07:24:23.265Z,32.83
2022-12-04T07:25:25.867Z,32.78
2022-12-04T07:26:30.583Z,35.35
2022-12-04T07:27:33.580Z,41.65
2022-12-04T07:28:37.016Z,38.80
2022-12-04T07:29:39.625Z,49.75
2022-12-04T07:30:42.445Z,40.07
2022-12-04T07:31:45.327Z,43.17
2022-12-04T07:32:48.936Z,39.00
2022-12-04T07:33:53.945Z,39.13
2022-12-04T07:34:56.879Z,49.85
2022-12-04T07:36:01.683Z,38.75
2022-12-04T07:37:04.652Z,39.75
2022-12-04T07:38:07.873Z,34.67
2022-12-04T07:39:10.519Z,35.75
2022-12-04T07:40:13.877Z,33.97
2022-12-04T07:41:17.201Z,29.50
2022-12-04T07:42:24.096Z,27.23
2022-12-04T07:43:29.292Z,26.10
2022-12-04T07:44:32.313Z,27.42
2022-12-04T07:45:36.989Z,27.75
2022-12-04T07:46:39.615Z,28.38
2022-12-04T07:47:42.299Z,26.98
2022-12-04T07:48:45.321Z,26.98
2022-12-04T07:49:48.155Z,26.37
2022-12-04T07:50:51.002Z,28.33
2022-12-04T07:51:53.764Z,24.27
2022-12-04T07:53:00.280Z,25.90
2022-12-04T07:54:04.349Z,24.42
2022-12-04T07:55:08.004Z,24.17
2022-12-04T07:56:12.154Z,25.60
2022-12-04T07:57:14.741Z,26.65
2022-12-04T07:58:18.535Z,27.17
2022-12-04T07:59:21.671Z,29.05
2022-12-04T08:00:24.173Z,25.75
2022-12-04T08:01:27.185Z,33.85
2022-12-04T08:02:29.926Z,26.60
2022-12-04T08:03:32.552Z,26.90
2022-12-04T08:04:36.594Z,25.27
2022-12-04T08:05:39.162Z,25.73
2022-12-04T08:06:42.048Z,32.80
2022-12-04T08:07:47.215Z,31.98
2022-12-04T08:08:50.715Z,29.37
2022-12-04T08:09:53.426Z,28.27
2022-12-04T08:10:56.626Z,31.87
2022-12-04T08:12:02.703Z,33.92
2022-12-04T08:13:05.444Z,29.33
2022-12-04T08:14:11.740Z,25.53
2022-12-04T08:15:14.306Z,24.87
2022-12-04T08:16:17.157Z,26.60
2022-12-04T08:17:20.537Z,22.52
2022-12-04T08:18:23.202Z,25.50
2022-12-04T08:19:26.606Z,24.60
2022-12-04T08:20:29.195Z,25.58
2022-12-04T08:21:32.865Z,23.25
2022-12-04T08:22:36.246Z,21.35
2022-12-04T08:23:40.095Z,21.00
2022-12-04T08:24:42.946Z,23.30
2022-12-04T08:25:46.121Z,21.73
2022-12-04T08:26:50.845Z,26.12
2022-12-04T08:27:55.816Z,28.17
2022-12-04T08:28:59.160Z,24.15
2022-12-04T08:30:01.884Z,24.12
2022-12-04T08:31:25.905Z,23.00
2022-12-04T08:32:28.509Z,22.75
2022-12-04T08:33:32.146Z,23.17
2022-12-04T08:34:34.870Z,24.10
2022-12-04T08:35:37.455Z,26.73
2022-12-04T08:36:40.152Z,30.73
2022-12-04T08:37:42.827Z,27.27
2022-12-04T08:38:47.090Z,25.88
2022-12-04T08:39:49.784Z,22.60
2022-12-04T08:40:52.397Z,23.65
2022-12-04T08:41:57.115Z,27.40
2022-12-04T08:43:00.149Z,21.48
2022-12-04T08:44:03.167Z,26.05
2022-12-04T08:45:06.444Z,26.40
2022-12-04T08:46:12.047Z,27.20
2022-12-04T08:47:15.034Z,20.25
2022-12-04T08:48:18.062Z,19.90
2022-12-04T08:49:20.901Z,20.05
2022-12-04T08:51:45.503Z,20.12
2022-12-04T08:52:49.095Z,18.85
2022-12-04T08:53:56.511Z,18.10
2022-12-04T08:54:59.577Z,18.85
2022-12-04T08:56:02.251Z,20.20
2022-12-04T08:57:04.984Z,18.33
2022-12-04T08:58:08.630Z,19.55
2022-12-04T08:59:13.790Z,22.77
2022-12-04T09:00:17.751Z,20.42
2022-12-04T09:01:20.753Z,24.87
2022-12-04T09:02:24.104Z,31.62
2022-12-04T09:03:30.875Z,23.58
2022-12-04T09:04:38.005Z,19.08
2022-12-04T09:05:41.971Z,20.30
2022-12-04T09:06:48.224Z,21.43
2022-12-04T09:07:51.637Z,22.67
2022-12-04T09:08:56.250Z,22.17
2022-12-04T09:09:59.755Z,25.65
2022-12-04T09:11:05.892Z,19.80
2022-12-04T09:12:11.435Z,24.98
2022-12-04T09:13:14.435Z,19.17
2022-12-04T09:14:19.467Z,20.80
2022-12-04T09:15:22.522Z,19.30
2022-12-04T09:16:26.688Z,17.23
2022-12-04T09:17:29.833Z,21.20
2022-12-04T09:18:34.220Z,19.90
2022-12-04T09:19:41.421Z,20.62
2022-12-04T09:20:44.406Z,16.42
2022-12-04T09:21:48.153Z,16.10
2022-12-04T09:23:03.815Z,21.75
2022-12-04T09:24:08.746Z,18.75
2022-12-04T09:25:12.472Z,22.00
2022-12-04T09:26:28.999Z,19.70
2022-12-04T09:27:38.052Z,18.70
2022-12-04T09:28:49.157Z,41.93
2022-12-04T09:29:58.719Z,24.67
2022-12-04T09:31:06.247Z,19.73
2022-12-04T09:32:09.040Z,17.33
2022-12-04T09:33:12.786Z,22.83
2022-12-04T09:34:16.275Z,16.58
2022-12-04T09:35:19.445Z,16.85
2022-12-04T09:36:22.864Z,16.50
2022-12-04T09:37:26.113Z,17.90
2022-12-04T09:38:30.858Z,16.08
2022-12-04T09:39:33.683Z,15.47
2022-12-04T09:40:45.293Z,17.07
2022-12-04T09:42:06.980Z,18.40
2022-12-04T09:43:31.660Z,20.08
2022-12-04T09:44:46.030Z,19.73
2022-12-04T09:45:59.414Z,19.65
2022-12-04T09:47:09.144Z,19.42
2022-12-04T09:48:13.367Z,17.92
2022-12-04T09:49:23.626Z,23.12
2022-12-04T09:50:41.532Z,21.37
2022-12-04T09:51:45.708Z,17.33
2022-12-04T09:53:06.437Z,18.50
2022-12-04T09:54:23.843Z,19.05
2022-12-04T09:55:36.871Z,18.70
2022-12-04T09:56:41.610Z,18.92
2022-12-04T09:57:50.630Z,18.77
2022-12-04T09:59:00.459Z,22.25
2022-12-04T10:00:05.958Z,20.33
2022-12-04T10:01:33.712Z,20.98
2022-12-04T10:02:42.641Z,19.62
2022-12-04T10:03:45.892Z,20.43
2022-12-04T10:04:49.102Z,19.87
2022-12-04T10:06:06.137Z,23.42
2022-12-04T10:07:20.206Z,19.48
2022-12-04T10:08:35.013Z,17.30
2022-12-04T10:10:01.284Z,15.65
2022-12-04T10:11:16.588Z,19.52
2022-12-04T10:13:18.339Z,19.98
2022-12-04T10:14:37.541Z,24.48
2022-12-04T10:15:49.631Z,23.90
2022-12-04T10:17:21.608Z,19.97
2022-12-04T10:18:40.125Z,19.90
2022-12-04T10:19:53.500Z,19.25
2022-12-04T10:21:11.888Z,17.67
2022-12-04T10:23:13.505Z,17.75
2022-12-04T10:24:41.700Z,21.35
2022-12-04T10:25:44.930Z,18.65
2022-12-04T10:26:48.989Z,19.83
2022-12-04T10:28:01.650Z,23.42
2022-12-04T10:29:08.971Z,24.80
2022-12-04T10:30:22.958Z,18.57
2022-12-04T10:31:28.382Z,21.83
2022-12-04T10:32:35.359Z,21.45
2022-12-04T10:33:43.899Z,18.60
2022-12-04T10:34:50.926Z,20.12
2022-12-04T10:35:54.803Z,25.48
2022-12-04T10:37:09.617Z,17.30
2022-12-04T10:38:44.571Z,20.27
2022-12-04T10:40:08.181Z,27.77
2022-12-04T10:41:20.967Z,21.20
2022-12-04T10:42:42.285Z,16.43
2022-12-04T10:43:50.505Z,15.20
2022-12-04T10:44:54.273Z,16.50
2022-12-04T10:45:57.214Z,19.77
2022-12-04T10:47:02.982Z,16.12
2022-12-04T10:48:08.368Z,16.42
2022-12-04T10:49:22.968Z,19.33
2022-12-04T10:50:46.297Z,17.02
2022-12-04T10:51:58.281Z,21.62
2022-12-04T10:53:08.263Z,18.80
2022-12-04T10:54:35.861Z,20.50
2022-12-04T10:55:40.170Z,18.07
2022-12-04T10:56:55.882Z,17.95
2022-12-04T10:57:58.881Z,18.33
2022-12-04T10:59:03.448Z,17.67
2022-12-04T11:00:27.200Z,17.65
2022-12-04T11:01:32.612Z,18.75
2022-12-04T11:02:38.098Z,20.83
2022-12-04T11:03:44.286Z,20.45
2022-12-04T11:04:58.812Z,19.17
2022-12-04T11:06:04.998Z,20.17
2022-12-04T11:07:20.398Z,19.97
2022-12-04T11:08:27.065Z,17.90
2022-12-04T11:09:30.468Z,17.35
2022-12-04T11:10:38.440Z,18.85
2022-12-04T11:11:41.583Z,17.92
2022-12-04T11:13:04.372Z,17.10
2022-12-04T11:14:15.313Z,17.80
2022-12-04T11:15:18.002Z,24.50
2022-12-04T11:16:35.275Z,20.42
2022-12-04T11:17:44.184Z,19.83
2022-12-04T11:18:50.562Z,34.13
2022-12-04T11:20:09.108Z,23.75
2022-12-04T11:21:19.661Z,26.73
2022-12-04T11:22:22.870Z,24.17
2022-12-04T11:23:30.556Z,24.12
2022-12-04T11:24:36.857Z,20.83
2022-12-04T11:25:47.325Z,23.77
2022-12-04T11:26:52.248Z,21.42
2022-12-04T11:27:59.626Z,21.60
2022-12-04T11:29:05.356Z,19.37
2022-12-04T11:30:15.903Z,20.57
2022-12-04T11:31:22.467Z,18.40
2022-12-04T11:32:34.523Z,21.37
2022-12-04T11:34:15.560Z,22.17
2022-12-04T11:35:25.097Z,21.42
2022-12-04T11:36:32.451Z,21.62
2022-12-04T11:37:38.208Z,18.58
2022-12-04T11:38:45.729Z,21.45
2022-12-04T11:39:49.503Z,22.52
2022-12-04T11:40:56.978Z,20.43
2022-12-04T11:42:21.516Z,19.03
2022-12-04T11:43:31.895Z,22.42
2022-12-04T11:44:36.697Z,19.62
2022-12-04T11:45:40.355Z,20.33
2022-12-04T11:46:53.970Z,25.90
2022-12-04T11:47:59.923Z,26.10
2022-12-04T11:49:08.196Z,27.67
2022-12-04T11:50:18.209Z,22.42
2022-12-04T11:51:34.464Z,24.55
2022-12-04T11:53:19.776Z,25.70
2022-12-04T11:54:41.135Z,21.43
2022-12-04T11:55:49.163Z,24.80
2022-12-04T11:57:20.875Z,20.35
2022-12-04T11:58:35.870Z,23.25
2022-12-04T12:00:04.225Z,29.55
2022-12-04T12:01:17.861Z,22.08
2022-12-04T12:02:42.863Z,25.62
2022-12-04T12:03:57.440Z,21.55
2022-12-04T12:05:17.164Z,22.98
2022-12-04T12:06:35.434Z,22.20
2022-12-04T12:07:43.294Z,21.30
2022-12-04T12:08:54.948Z,21.87
2022-12-04T12:10:28.623Z,19.27
2022-12-04T12:11:53.135Z,19.75
2022-12-04T12:13:17.644Z,19.35
2022-12-04T12:14:33.629Z,18.45
2022-12-04T12:15:54.395Z,19.37
2022-12-04T12:17:15.690Z,22.45
2022-12-04T12:18:51.455Z,28.30
2022-12-04T12:20:25.272Z,25.13
2022-12-04T12:21:39.477Z,27.50
2022-12-04T12:23:40.712Z,24.45
2022-12-04T12:25:19.105Z,20.20
2022-12-04T12:26:28.095Z,19.20
2022-12-04T12:27:52.172Z,20.00
2022-12-04T12:29:14.561Z,20.92
2022-12-04T12:30:22.519Z,21.45
2022-12-04T12:31:35.008Z,19.77
2022-12-04T12:33:10.432Z,22.80
2022-12-04T12:34:27.119Z,22.57
2022-12-04T12:35:32.241Z,19.17
2022-12-04T12:36:43.707Z,20.65
2022-12-04T12:37:53.263Z,29.92
2022-12-04T12:39:02.168Z,23.87
2022-12-04T12:40:21.731Z,26.45
2022-12-04T12:41:39.122Z,21.35
2022-12-04T12:42:58.229Z,21.58
2022-12-04T12:44:06.232Z,22.13
2022-12-04T12:45:30.694Z,23.25
2022-12-04T12:46:44.602Z,25.93
2022-12-04T12:47:52.559Z,20.77
2022-12-04T12:48:58.846Z,23.00
2022-12-04T12:50:10.518Z,22.83
2022-12-04T12:51:35.296Z,25.50
2022-12-04T12:52:49.770Z,22.48
2022-12-04T12:53:58.412Z,18.95
2022-12-04T12:55:14.649Z,27.80
2022-12-04T12:56:20.396Z,27.73
2022-12-04T12:57:32.029Z,19.55
2022-12-04T12:58:40.654Z,43.63
2022-12-04T12:59:49.183Z,26.67
2022-12-04T13:01:08.434Z,21.23
2022-12-04T13:02:44.540Z,22.70
2022-12-04T13:04:03.273Z,22.65
2022-12-04T13:05:11.173Z,33.00
2022-12-04T13:06:19.269Z,29.63
2022-12-04T13:07:58.702Z,34.92
2022-12-04T13:09:13.951Z,21.52
2022-12-04T13:10:22.119Z,19.80
2022-12-04T13:11:28.520Z,38.23
2022-12-04T13:12:49.250Z,22.73
2022-12-04T13:13:58.720Z,24.42
2022-12-04T13:15:01.790Z,30.35
2022-12-04T13:16:21.237Z,39.67
2022-12-04T13:17:33.608Z,28.87
2022-12-04T13:18:45.787Z,31.37
2022-12-04T13:19:53.932Z,24.60
2022-12-04T13:21:00.814Z,31.27
2022-12-04T13:22:34.841Z,33.42
2022-12-04T13:23:50.653Z,23.97
2022-12-04T13:24:59.056Z,27.03
2022-12-04T13:26:16.186Z,20.58
2022-12-04T13:27:34.779Z,31.23
2022-12-04T13:28:40.143Z,28.90
2022-12-04T13:29:54.787Z,24.17
2022-12-04T13:31:11.483Z,21.02
2022-12-04T13:32:41.827Z,18.42
2022-12-04T13:33:44.375Z,35.85
2022-12-04T13:35:07.247Z,24.70
2022-12-04T13:36:36.644Z,17.70
2022-12-04T13:37:57.799Z,23.60
2022-12-04T13:39:38.033Z,18.65
2022-12-04T13:40:44.945Z,18.95
2022-12-04T13:41:56.250Z,22.92
2022-12-04T13:43:17.886Z,21.65
2022-12-04T13:44:24.608Z,20.17
2022-12-04T13:45:32.439Z,19.52
2022-12-04T13:46:39.492Z,17.83
2022-12-04T13:47:42.269Z,18.08
2022-12-04T13:48:45.394Z,16.90
2022-12-04T13:49:48.276Z,18.57
2022-12-04T13:51:20.773Z,19.55
2022-12-04T13:52:36.689Z,19.48
2022-12-04T13:53:40.487Z,21.25
2022-12-04T13:54:43.387Z,19.55
2022-12-04T13:55:56.361Z,18.50
2022-12-04T13:57:17.451Z,18.37
2022-12-04T13:58:20.048Z,18.45
2022-12-04T13:59:28.621Z,28.23
2022-12-04T14:00:35.057Z,22.20
2022-12-04T14:01:41.020Z,25.30
2022-12-04T14:02:51.806Z,23.67
2022-12-04T14:03:57.459Z,23.05
2022-12-04T14:05:04.684Z,20.48
2022-12-04T14:06:24.615Z,19.02
2022-12-04T14:07:33.862Z,21.98
2022-12-04T14:08:40.584Z,19.12
2022-12-04T14:09:54.239Z,19.80
2022-12-04T14:10:59.018Z,19.50
2022-12-04T14:12:05.955Z,18.63
2022-12-04T14:13:20.045Z,20.00
2022-12-04T14:14:38.795Z,21.83
2022-12-04T14:15:41.786Z,27.62
2022-12-04T14:16:49.479Z,31.98
2022-12-04T14:18:14.797Z,28.27
2022-12-04T14:19:35.426Z,24.80
2022-12-04T14:20:39.214Z,22.65
2022-12-04T14:21:48.406Z,22.52
2022-12-04T14:22:51.139Z,22.23
2022-12-04T14:23:54.199Z,20.73
2022-12-04T14:25:14.251Z,23.47
2022-12-04T14:26:19.885Z,25.65
2022-12-04T14:27:42.716Z,33.20
2022-12-04T14:28:45.915Z,51.47
2022-12-04T14:29:56.720Z,65.68
2022-12-04T14:31:05.694Z,56.90
2022-12-04T14:32:17.263Z,48.55
2022-12-04T14:33:22.883Z,50.65
2022-12-04T14:34:36.376Z,50.45
2022-12-04T14:35:53.212Z,37.83
2022-12-04T14:36:58.405Z,37.87
2022-12-04T14:38:04.656Z,31.92
2022-12-04T14:39:23.613Z,48.63
2022-12-04T14:40:33.730Z,61.75
2022-12-04T14:41:36.523Z,39.03
2022-12-04T14:42:40.934Z,31.73
2022-12-04T14:43:45.824Z,34.20
2022-12-04T14:45:03.271Z,35.03
2022-12-04T14:46:26.638Z,40.47
2022-12-04T14:47:58.985Z,46.10
2022-12-04T14:49:13.418Z,45.20
2022-12-04T14:50:44.966Z,44.80
2022-12-04T14:52:02.074Z,32.83
2022-12-04T14:53:19.630Z,42.25
2022-12-04T14:54:30.857Z,35.58
2022-12-04T14:56:13.814Z,47.90
2022-12-04T14:57:54.422Z,44.03
2022-12-04T14:58:59.393Z,56.40
2022-12-04T15:00:03.089Z,39.22
2022-12-04T15:01:29.727Z,35.50
2022-12-04T15:02:40.051Z,26.23
2022-12-04T15:03:49.633Z,42.00
2022-12-04T15:04:53.711Z,30.92
2022-12-04T15:06:07.312Z,40.78
2022-12-04T15:07:11.162Z,33.63
2022-12-04T15:08:14.742Z,31.08
2022-12-04T15:09:38.139Z,51.80
2022-12-04T15:11:06.936Z,47.75
2022-12-04T15:12:35.913Z,41.25
2022-12-04T15:13:39.503Z,56.27
2022-12-04T15:14:46.630Z,50.60
2022-12-04T15:15:50.295Z,51.65
2022-12-04T15:17:04.072Z,42.30
2022-12-04T15:18:10.616Z,35.58
2022-12-04T15:19:18.325Z,32.13
2022-12-04T15:20:22.089Z,32.42
2022-12-04T15:21:34.998Z,39.83
2022-12-04T15:22:39.074Z,45.28
2022-12-04T15:23:43.272Z,48.17
2022-12-04T15:24:46.469Z,60.73
2022-12-04T15:25:55.618Z,56.23
2022-12-04T15:26:59.289Z,59.30
2022-12-04T15:28:28.151Z,52.47
2022-12-04T15:29:35.507Z,48.80
2022-12-04T15:30:42.316Z,50.00
2022-12-04T15:31:53.887Z,49.10
2022-12-04T15:32:57.459Z,43.75
2022-12-04T15:34:03.876Z,44.72
2022-12-04T15:35:17.147Z,40.05
2022-12-04T15:36:28.581Z,43.60
2022-12-04T15:37:33.291Z,44.50
2022-12-04T15:38:37.307Z,49.15
2022-12-04T15:39:41.189Z,52.35
2022-12-04T15:40:59.720Z,56.78
2022-12-04T15:42:28.619Z,54.30
2022-12-04T15:43:33.036Z,53.72
2022-12-04T15:44:36.841Z,60.05
2022-12-04T15:45:41.427Z,49.58
2022-12-04T15:46:45.514Z,46.13
2022-12-04T15:47:54.864Z,45.37
2022-12-04T15:49:16.260Z,52.67
2022-12-04T15:50:19.588Z,43.38
2022-12-04T15:51:23.178Z,39.33
2022-12-04T15:52:26.246Z,36.63
2022-12-04T15:53:37.313Z,40.85
2022-12-04T15:54:44.865Z,39.28
2022-12-04T15:55:56.992Z,36.75
2022-12-04T15:57:00.107Z,31.35
2022-12-04T15:58:07.214Z,31.77
2022-12-04T15:59:18.737Z,30.87
2022-12-04T16:00:21.848Z,32.87
2022-12-04T16:01:25.545Z,31.00
2022-12-04T16:02:35.055Z,32.03
2022-12-04T16:03:48.181Z,32.25
2022-12-04T16:04:51.352Z,33.08
2022-12-04T16:06:29.219Z,32.65
2022-12-04T16:07:33.238Z,33.00
2022-12-04T16:08:40.748Z,32.85
2022-12-04T16:09:52.684Z,33.35
2022-12-04T16:11:07.400Z,33.23
2022-12-04T16:12:19.862Z,37.60
2022-12-04T16:13:32.735Z,37.00
2022-12-04T16:14:35.408Z,37.50
2022-12-04T16:15:42.418Z,36.85
2022-12-04T16:16:48.769Z,37.95
2022-12-04T16:17:52.670Z,35.28
2022-12-04T16:18:58.463Z,37.22
2022-12-04T16:20:05.759Z,42.97